sensor_id;sensor_type;location;lat;lon;timestamp;pressure;altitude;pressure_sealevel;temperature;humidity
23281;BME280;11809;56.390;-3.266;2023-03-31T00:01:07;98934.75;;;17.37;57.43
23281;BME280;11809;56.390;-3.266;2023-03-31T00:03:34;98928.75;;;17.35;57.54
23281;BME280;11809;56.390;-3.266;2023-03-31T00:06:04;98924.56;;;17.32;57.43
23281;BME280;11809;56.390;-3.266;2023-03-31T00:08:32;98918.53;;;17.30;57.53
23281;BME280;11809;56.390;-3.266;2023-03-31T00:11:04;98920.53;;;17.28;57.51
23281;BME280;11809;56.390;-3.266;2023-03-31T00:13:34;98916.34;;;17.26;57.44
23281;BME280;11809;56.390;-3.266;2023-03-31T00:16:04;98912.16;;;17.23;57.39
23281;BME280;11809;56.390;-3.266;2023-03-31T00:18:32;98905.88;;;17.24;57.45
23281;BME280;11809;56.390;-3.266;2023-03-31T00:21:10;98908.81;;;17.21;57.50
23281;BME280;11809;56.390;-3.266;2023-03-31T00:24:10;98905.44;;;17.19;57.68
23281;BME280;11809;56.390;-3.266;2023-03-31T00:26:37;98895.66;;;17.20;57.57
23281;BME280;11809;56.390;-3.266;2023-03-31T00:29:07;98905.44;;;17.19;57.55
23281;BME280;11809;56.390;-3.266;2023-03-31T00:31:34;98899.44;;;17.17;57.48
23281;BME280;11809;56.390;-3.266;2023-03-31T00:34:01;98892.78;;;17.13;57.58
23281;BME280;11809;56.390;-3.266;2023-03-31T00:36:28;98898.78;;;17.15;57.52
23281;BME280;11809;56.390;-3.266;2023-03-31T00:38:58;98894.59;;;17.13;57.66
23281;BME280;11809;56.390;-3.266;2023-03-31T00:41:27;98898.38;;;17.10;57.70
23281;BME280;11809;56.390;-3.266;2023-03-31T00:49:15;98892.66;;;17.05;57.68
23281;BME280;11809;56.390;-3.266;2023-03-31T00:51:44;98892.66;;;17.05;57.72
23281;BME280;11809;56.390;-3.266;2023-03-31T00:54:11;98891.81;;;17.05;57.71
23281;BME280;11809;56.390;-3.266;2023-03-31T00:56:40;98884.03;;;17.03;57.81
23281;BME280;11809;56.390;-3.266;2023-03-31T00:59:10;98888.50;;;17.03;57.82
23281;BME280;11809;56.390;-3.266;2023-03-31T01:01:39;98882.47;;;17.01;57.93
23281;BME280;11809;56.390;-3.266;2023-03-31T01:04:09;98883.31;;;17.01;57.88
23281;BME280;11809;56.390;-3.266;2023-03-31T01:06:43;98878.00;;;17.01;57.78
23281;BME280;11809;56.390;-3.266;2023-03-31T01:09:13;98875.34;;;17.01;57.86
23281;BME280;11809;56.390;-3.266;2023-03-31T01:11:44;98865.84;;;16.98;57.87
23281;BME280;11809;56.390;-3.266;2023-03-31T01:14:13;98862.34;;;16.98;57.88
23281;BME280;11809;56.390;-3.266;2023-03-31T01:16:40;98861.38;;;16.99;57.90
23281;BME280;11809;56.390;-3.266;2023-03-31T01:19:15;98860.53;;;16.98;57.92
23281;BME280;11809;56.390;-3.266;2023-03-31T01:22:46;98858.06;;;16.97;57.85
23281;BME280;11809;56.390;-3.266;2023-03-31T01:25:11;98856.38;;;16.96;57.75
23281;BME280;11809;56.390;-3.266;2023-03-31T01:28:15;98852.06;;;16.95;57.79
23281;BME280;11809;56.390;-3.266;2023-03-31T01:31:07;98839.75;;;16.94;57.86
23281;BME280;11809;56.390;-3.266;2023-03-31T01:40:23;98828.47;;;16.92;57.74
23281;BME280;11809;56.390;-3.266;2023-03-31T01:42:59;98833.78;;;16.92;57.70
23281;BME280;11809;56.390;-3.266;2023-03-31T01:51:38;98818.28;;;16.87;57.79
23281;BME280;11809;56.390;-3.266;2023-03-31T01:54:33;98818.13;;;16.89;57.74
23281;BME280;11809;56.390;-3.266;2023-03-31T01:57:17;98812.84;;;16.89;58.04
23281;BME280;11809;56.390;-3.266;2023-03-31T02:03:24;98812.84;;;16.89;57.98
23281;BME280;11809;56.390;-3.266;2023-03-31T02:05:48;98803.19;;;16.88;58.00
23281;BME280;11809;56.390;-3.266;2023-03-31T02:08:34;98795.22;;;16.88;57.93
23281;BME280;11809;56.390;-3.266;2023-03-31T02:11:03;98797.75;;;16.89;57.71
23281;BME280;11809;56.390;-3.266;2023-03-31T02:13:31;98786.59;;;16.86;57.67
23281;BME280;11809;56.390;-3.266;2023-03-31T02:16:04;98782.97;;;16.87;57.73
23281;BME280;11809;56.390;-3.266;2023-03-31T02:18:33;98776.94;;;16.85;57.67
23281;BME280;11809;56.390;-3.266;2023-03-31T02:21:06;98779.31;;;16.88;57.90
23281;BME280;11809;56.390;-3.266;2023-03-31T02:23:36;98778.63;;;16.86;57.98
23281;BME280;11809;56.390;-3.266;2023-03-31T02:26:35;98779.47;;;16.86;57.91
23281;BME280;11809;56.390;-3.266;2023-03-31T02:29:03;98779.31;;;16.88;57.95
23281;BME280;11809;56.390;-3.266;2023-03-31T02:31:46;98775.69;;;16.89;58.05
23281;BME280;11809;56.390;-3.266;2023-03-31T02:34:15;98776.81;;;16.86;58.25
23281;BME280;11809;56.390;-3.266;2023-03-31T02:36:44;98770.97;;;16.83;58.04
23281;BME280;11809;56.390;-3.266;2023-03-31T02:39:15;98770.66;;;16.86;58.17
23281;BME280;11809;56.390;-3.266;2023-03-31T02:41:43;98770.66;;;16.86;58.27
23281;BME280;11809;56.390;-3.266;2023-03-31T02:44:11;98773.31;;;16.86;58.19
23281;BME280;11809;56.390;-3.266;2023-03-31T02:46:39;98774.16;;;16.86;58.12
23281;BME280;11809;56.390;-3.266;2023-03-31T02:49:08;98775.97;;;16.86;58.03
23281;BME280;11809;56.390;-3.266;2023-03-31T03:16:13;98740.66;;;16.85;58.13
23281;BME280;11809;56.390;-3.266;2023-03-31T03:18:57;98739.97;;;16.83;58.04
23281;BME280;11809;56.390;-3.266;2023-03-31T03:21:25;98740.09;;;16.82;58.15
23281;BME280;11809;56.390;-3.266;2023-03-31T03:23:52;98742.75;;;16.82;58.07
23281;BME280;11809;56.390;-3.266;2023-03-31T03:26:21;98746.25;;;16.82;58.23
23281;BME280;11809;56.390;-3.266;2023-03-31T03:28:50;98746.41;;;16.81;58.12
23281;BME280;11809;56.390;-3.266;2023-03-31T03:31:18;98741.94;;;16.81;58.11
23281;BME280;11809;56.390;-3.266;2023-03-31T03:33:45;98741.09;;;16.81;58.16
23281;BME280;11809;56.390;-3.266;2023-03-31T03:36:12;98738.56;;;16.79;58.12
23281;BME280;11809;56.390;-3.266;2023-03-31T03:38:39;98738.44;;;16.81;58.12
23281;BME280;11809;56.390;-3.266;2023-03-31T03:41:06;98738.44;;;16.81;58.06
23281;BME280;11809;56.390;-3.266;2023-03-31T03:43:33;98734.94;;;16.80;58.05
23281;BME280;11809;56.390;-3.266;2023-03-31T03:46:00;98737.59;;;16.80;58.20
23281;BME280;11809;56.390;-3.266;2023-03-31T03:48:28;98731.03;;;16.84;58.16
23281;BME280;11809;56.390;-3.266;2023-03-31T03:50:58;98733.53;;;16.86;58.12
23281;BME280;11809;56.390;-3.266;2023-03-31T03:53:26;98723.38;;;16.81;58.04
23281;BME280;11809;56.390;-3.266;2023-03-31T03:55:53;98726.81;;;16.82;57.96
23281;BME280;11809;56.390;-3.266;2023-03-31T03:58:20;98730.47;;;16.81;58.08
23281;BME280;11809;56.390;-3.266;2023-03-31T04:00:47;98722.66;;;16.79;58.01
23281;BME280;11809;56.390;-3.266;2023-03-31T04:03:14;98723.38;;;16.81;58.00
23281;BME280;11809;56.390;-3.266;2023-03-31T04:05:42;98728.50;;;16.83;57.77
23281;BME280;11809;56.390;-3.266;2023-03-31T04:08:09;98725.03;;;16.82;57.93
23281;BME280;11809;56.390;-3.266;2023-03-31T04:10:36;98732.97;;;16.82;57.79
23281;BME280;11809;56.390;-3.266;2023-03-31T04:13:03;98728.50;;;16.83;57.98
23281;BME280;11809;56.390;-3.266;2023-03-31T04:15:30;98728.50;;;16.83;57.86
23281;BME280;11809;56.390;-3.266;2023-03-31T04:17:57;98724.88;;;16.84;57.90
23281;BME280;11809;56.390;-3.266;2023-03-31T04:20:24;98719.59;;;16.84;57.62
23281;BME280;11809;56.390;-3.266;2023-03-31T04:22:57;98723.06;;;16.84;57.71
23281;BME280;11809;56.390;-3.266;2023-03-31T04:25:24;98723.59;;;16.88;57.64
23281;BME280;11809;56.390;-3.266;2023-03-31T04:27:51;98715.22;;;16.92;57.22
23281;BME280;11809;56.390;-3.266;2023-03-31T04:30:25;98707.31;;;17.01;57.13
23281;BME280;11809;56.390;-3.266;2023-03-31T04:32:58;98707.41;;;17.09;57.71
23281;BME280;11809;56.390;-3.266;2023-03-31T04:35:28;98703.69;;;17.19;57.66
23281;BME280;11809;56.390;-3.266;2023-03-31T04:38:20;98696.16;;;17.24;57.38
23281;BME280;11809;56.390;-3.266;2023-03-31T04:40:49;98703.34;;;17.32;57.60
23281;BME280;11809;56.390;-3.266;2023-03-31T04:43:18;98697.75;;;17.35;57.34
23281;BME280;11809;56.390;-3.266;2023-03-31T04:45:45;98693.66;;;17.40;57.11
23281;BME280;11809;56.390;-3.266;2023-03-31T04:48:13;98700.47;;;17.43;57.14
23281;BME280;11809;56.390;-3.266;2023-03-31T04:50:40;98692.34;;;17.44;57.03
23281;BME280;11809;56.390;-3.266;2023-03-31T04:53:07;98696.34;;;17.48;56.88
23281;BME280;11809;56.390;-3.266;2023-03-31T04:55:34;98695.06;;;17.52;56.81
23281;BME280;11809;56.390;-3.266;2023-03-31T04:58:02;98692.16;;;17.55;56.68
23281;BME280;11809;56.390;-3.266;2023-03-31T05:00:29;98687.50;;;17.58;56.60
23281;BME280;11809;56.390;-3.266;2023-03-31T05:02:56;98691.84;;;17.59;56.38
23281;BME280;11809;56.390;-3.266;2023-03-31T05:05:23;98700.56;;;17.51;56.67
23281;BME280;11809;56.390;-3.266;2023-03-31T05:07:50;98700.97;;;17.46;56.86
23281;BME280;11809;56.390;-3.266;2023-03-31T05:10:17;98706.31;;;17.46;56.71
23281;BME280;11809;56.390;-3.266;2023-03-31T05:12:44;98701.16;;;17.45;56.81
23281;BME280;11809;56.390;-3.266;2023-03-31T05:15:11;98713.28;;;17.47;56.78
23281;BME280;11809;56.390;-3.266;2023-03-31T05:17:38;98704.66;;;17.45;56.88
23281;BME280;11809;56.390;-3.266;2023-03-31T05:20:06;98715.66;;;17.50;56.89
23281;BME280;11809;56.390;-3.266;2023-03-31T05:22:35;98705.88;;;17.51;57.20
23281;BME280;11809;56.390;-3.266;2023-03-31T05:25:05;98703.44;;;17.58;57.32
23281;BME280;11809;56.390;-3.266;2023-03-31T05:27:34;98704.91;;;17.70;57.32
23281;BME280;11809;56.390;-3.266;2023-03-31T05:30:02;98694.47;;;17.76;57.08
23281;BME280;11809;56.390;-3.266;2023-03-31T05:32:30;98691.88;;;17.84;57.11
23281;BME280;11809;56.390;-3.266;2023-03-31T05:34:57;98694.78;;;17.91;57.16
23281;BME280;11809;56.390;-3.266;2023-03-31T05:37:24;98702.56;;;17.92;56.64
23281;BME280;11809;56.390;-3.266;2023-03-31T05:39:52;98703.25;;;17.94;56.56
23281;BME280;11809;56.390;-3.266;2023-03-31T05:42:19;98705.69;;;17.88;56.29
23281;BME280;11809;56.390;-3.266;2023-03-31T05:44:46;98713.97;;;17.85;56.29
23281;BME280;11809;56.390;-3.266;2023-03-31T05:47:14;98710.41;;;17.76;56.50
23281;BME280;11809;56.390;-3.266;2023-03-31T05:49:41;98712.53;;;17.73;56.59
23281;BME280;11809;56.390;-3.266;2023-03-31T05:52:10;98705.72;;;17.70;56.47
23281;BME280;11809;56.390;-3.266;2023-03-31T05:54:37;98722.66;;;17.69;56.56
23281;BME280;11809;56.390;-3.266;2023-03-31T05:57:04;98718.47;;;17.67;56.47
23281;BME280;11809;56.390;-3.266;2023-03-31T05:59:31;98734.44;;;17.67;56.44
23281;BME280;11809;56.390;-3.266;2023-03-31T06:02:01;98731.75;;;17.67;56.24
23281;BME280;11809;56.390;-3.266;2023-03-31T06:04:29;98729.91;;;17.67;56.22
23281;BME280;11809;56.390;-3.266;2023-03-31T06:06:58;98724.78;;;17.66;56.24
23281;BME280;11809;56.390;-3.266;2023-03-31T06:09:25;98727.44;;;17.66;56.01
23281;BME280;11809;56.390;-3.266;2023-03-31T06:11:53;98732.75;;;17.66;56.17
23281;BME280;11809;56.390;-3.266;2023-03-31T06:14:21;98736.38;;;17.65;56.10
23281;BME280;11809;56.390;-3.266;2023-03-31T06:16:48;98745.84;;;17.67;56.23
23281;BME280;11809;56.390;-3.266;2023-03-31T06:19:15;98753.81;;;17.67;55.01
23281;BME280;11809;56.390;-3.266;2023-03-31T06:21:42;98752.97;;;17.49;54.59
23281;BME280;11809;56.390;-3.266;2023-03-31T06:24:09;98747.09;;;17.55;55.32
23281;BME280;11809;56.390;-3.266;2023-03-31T06:26:36;98748.38;;;17.69;55.87
23281;BME280;11809;56.390;-3.266;2023-03-31T06:29:03;98745.63;;;17.78;55.62
23281;BME280;11809;56.390;-3.266;2023-03-31T06:31:30;98741.53;;;17.84;55.38
23281;BME280;11809;56.390;-3.266;2023-03-31T06:33:58;98749.19;;;17.87;55.46
23281;BME280;11809;56.390;-3.266;2023-03-31T06:36:25;98746.41;;;17.88;55.30
23281;BME280;11809;56.390;-3.266;2023-03-31T06:38:52;98748.06;;;17.89;55.30
23281;BME280;11809;56.390;-3.266;2023-03-31T06:41:20;98747.91;;;17.91;55.14
23281;BME280;11809;56.390;-3.266;2023-03-31T06:43:48;98747.91;;;17.91;55.23
23281;BME280;11809;56.390;-3.266;2023-03-31T06:46:15;98749.56;;;17.92;55.23
23281;BME280;11809;56.390;-3.266;2023-03-31T06:48:42;98756.56;;;17.93;55.13
23281;BME280;11809;56.390;-3.266;2023-03-31T06:51:09;98759.22;;;17.93;54.99
23281;BME280;11809;56.390;-3.266;2023-03-31T06:53:36;98756.56;;;17.93;55.09
23281;BME280;11809;56.390;-3.266;2023-03-31T06:56:05;98758.22;;;17.94;54.91
23281;BME280;11809;56.390;-3.266;2023-03-31T06:58:33;98754.59;;;17.95;55.08
23281;BME280;11809;56.390;-3.266;2023-03-31T07:01:04;98761.88;;;17.93;55.07
23281;BME280;11809;56.390;-3.266;2023-03-31T07:03:32;98762.56;;;17.95;55.20
23281;BME280;11809;56.390;-3.266;2023-03-31T07:05:59;98774.56;;;17.99;55.40
23281;BME280;11809;56.390;-3.266;2023-03-31T07:08:27;98777.00;;;17.75;53.95
23281;BME280;11809;56.390;-3.266;2023-03-31T07:10:56;98775.25;;;17.66;54.64
23281;BME280;11809;56.390;-3.266;2023-03-31T07:13:24;98782.91;;;17.69;55.59
23281;BME280;11809;56.390;-3.266;2023-03-31T07:15:52;98773.72;;;17.81;56.02
23281;BME280;11809;56.390;-3.266;2023-03-31T07:18:19;98773.41;;;17.84;56.08
23281;BME280;11809;56.390;-3.266;2023-03-31T07:20:47;98777.59;;;17.86;56.40
23281;BME280;11809;56.390;-3.266;2023-03-31T07:23:15;98786.41;;;17.87;56.48
23281;BME280;11809;56.390;-3.266;2023-03-31T07:25:43;98792.56;;;17.70;55.65
23281;BME280;11809;56.390;-3.266;2023-03-31T07:28:11;98787.66;;;17.47;54.97
23281;BME280;11809;56.390;-3.266;2023-03-31T07:30:39;98789.66;;;17.36;55.30
23281;BME280;11809;56.390;-3.266;2023-03-31T07:33:07;98779.69;;;17.47;55.70
23281;BME280;11809;56.390;-3.266;2023-03-31T07:35:39;98790.25;;;17.57;55.57
23281;BME280;11809;56.390;-3.266;2023-03-31T07:38:11;98789.84;;;17.62;55.78
23281;BME280;11809;56.390;-3.266;2023-03-31T07:40:40;98791.19;;;17.66;55.92
23281;BME280;11809;56.390;-3.266;2023-03-31T07:43:11;98783.75;;;17.69;55.78
23281;BME280;11809;56.390;-3.266;2023-03-31T07:45:39;98788.91;;;17.71;55.98
23281;BME280;11809;56.390;-3.266;2023-03-31T07:48:07;98792.25;;;17.73;56.00
23281;BME280;11809;56.390;-3.266;2023-03-31T07:50:34;98796.56;;;17.74;55.99
23281;BME280;11809;56.390;-3.266;2023-03-31T07:53:01;98793.63;;;17.77;56.29
23281;BME280;11809;56.390;-3.266;2023-03-31T07:55:28;98797.78;;;17.79;56.08
23281;BME280;11809;56.390;-3.266;2023-03-31T07:57:55;98800.16;;;17.82;56.11
23281;BME280;11809;56.390;-3.266;2023-03-31T08:00:22;98787.72;;;17.83;56.37
23281;BME280;11809;56.390;-3.266;2023-03-31T08:02:50;98800.84;;;17.84;56.21
23281;BME280;11809;56.390;-3.266;2023-03-31T08:05:18;98798.00;;;17.86;56.21
23281;BME280;11809;56.390;-3.266;2023-03-31T08:07:48;98798.84;;;17.86;56.42
23281;BME280;11809;56.390;-3.266;2023-03-31T08:10:25;98812.84;;;17.88;56.17
23281;BME280;11809;56.390;-3.266;2023-03-31T08:12:52;98814.50;;;17.89;56.37
23281;BME280;11809;56.390;-3.266;2023-03-31T08:15:20;98817.81;;;17.91;56.21
23281;BME280;11809;56.390;-3.266;2023-03-31T08:17:47;98814.19;;;17.92;56.29
23281;BME280;11809;56.390;-3.266;2023-03-31T08:20:15;98821.50;;;17.90;56.12
23281;BME280;11809;56.390;-3.266;2023-03-31T08:22:42;98825.00;;;17.91;56.02
23281;BME280;11809;56.390;-3.266;2023-03-31T08:25:09;98832.81;;;17.92;56.22
23281;BME280;11809;56.390;-3.266;2023-03-31T08:27:38;98833.78;;;17.91;56.07
23281;BME280;11809;56.390;-3.266;2023-03-31T08:30:08;98834.63;;;17.92;56.05
23281;BME280;11809;56.390;-3.266;2023-03-31T08:32:36;98837.13;;;17.93;56.07
23281;BME280;11809;56.390;-3.266;2023-03-31T08:35:03;98842.44;;;17.93;56.07
23281;BME280;11809;56.390;-3.266;2023-03-31T08:37:31;98842.28;;;17.95;55.90
23281;BME280;11809;56.390;-3.266;2023-03-31T08:39:58;98841.69;;;18.01;55.86
23281;BME280;11809;56.390;-3.266;2023-03-31T08:42:34;98842.53;;;18.01;55.67
23281;BME280;11809;56.390;-3.266;2023-03-31T08:45:23;98839.03;;;18.01;55.75
23281;BME280;11809;56.390;-3.266;2023-03-31T08:47:55;98838.88;;;18.02;55.71
23281;BME280;11809;56.390;-3.266;2023-03-31T08:50:27;98840.38;;;18.05;55.60
23281;BME280;11809;56.390;-3.266;2023-03-31T08:53:27;98837.41;;;18.08;55.58
23281;BME280;11809;56.390;-3.266;2023-03-31T08:55:56;98837.88;;;18.03;55.65
23281;BME280;11809;56.390;-3.266;2023-03-31T09:01:02;98841.22;;;18.05;55.54
23281;BME280;11809;56.390;-3.266;2023-03-31T09:09:01;98839.09;;;18.09;55.40
23281;BME280;11809;56.390;-3.266;2023-03-31T09:11:38;98848.91;;;18.08;55.42
23281;BME280;11809;56.390;-3.266;2023-03-31T09:19:54;98855.50;;;18.04;55.17
23281;BME280;11809;56.390;-3.266;2023-03-31T09:22:25;98857.72;;;18.09;55.15
23281;BME280;11809;56.390;-3.266;2023-03-31T09:25:00;98859.38;;;18.10;55.15
23281;BME280;11809;56.390;-3.266;2023-03-31T09:27:33;98870.34;;;18.07;55.37
23281;BME280;11809;56.390;-3.266;2023-03-31T09:33:16;98881.41;;;18.02;55.49
23281;BME280;11809;56.390;-3.266;2023-03-31T09:35:44;98876.91;;;18.03;55.17
23281;BME280;11809;56.390;-3.266;2023-03-31T09:38:14;98883.09;;;18.03;55.27
23281;BME280;11809;56.390;-3.266;2023-03-31T09:40:42;98887.56;;;18.03;55.16
23281;BME280;11809;56.390;-3.266;2023-03-31T09:43:30;98891.06;;;18.03;54.82
23281;BME280;11809;56.390;-3.266;2023-03-31T09:49:10;98906.47;;;18.00;55.00
23281;BME280;11809;56.390;-3.266;2023-03-31T09:51:43;98903.66;;;18.01;55.12
23281;BME280;11809;56.390;-3.266;2023-03-31T09:54:25;98910.63;;;18.02;55.11
23281;BME280;11809;56.390;-3.266;2023-03-31T09:56:55;98915.09;;;18.02;55.00
23281;BME280;11809;56.390;-3.266;2023-03-31T09:59:33;98918.78;;;18.01;54.90
23281;BME280;11809;56.390;-3.266;2023-03-31T10:02:13;98915.44;;;17.99;55.27
23281;BME280;11809;56.390;-3.266;2023-03-31T10:04:47;98918.22;;;17.97;55.78
23281;BME280;11809;56.390;-3.266;2023-03-31T10:07:19;98927.72;;;18.00;56.12
23281;BME280;11809;56.390;-3.266;2023-03-31T10:09:47;98924.09;;;18.01;56.52
23281;BME280;11809;56.390;-3.266;2023-03-31T10:12:18;98922.28;;;18.01;57.26
23281;BME280;11809;56.390;-3.266;2023-03-31T10:14:52;98931.78;;;18.04;56.71
23281;BME280;11809;56.390;-3.266;2023-03-31T10:17:23;98933.28;;;18.06;56.78
23281;BME280;11809;56.390;-3.266;2023-03-31T10:19:52;98937.75;;;18.06;56.54
23281;BME280;11809;56.390;-3.266;2023-03-31T10:24:49;98949.75;;;18.10;56.82
23281;BME280;11809;56.390;-3.266;2023-03-31T10:27:26;98944.44;;;18.10;56.67
23281;BME280;11809;56.390;-3.266;2023-03-31T10:30:07;98935.50;;;18.11;56.96
23281;BME280;11809;56.390;-3.266;2023-03-31T10:32:40;98947.94;;;18.10;56.53
23281;BME280;11809;56.390;-3.266;2023-03-31T10:35:31;98958.28;;;18.13;56.67
23281;BME280;11809;56.390;-3.266;2023-03-31T10:38:05;98960.94;;;18.13;57.10
23281;BME280;11809;56.390;-3.266;2023-03-31T10:40:34;98959.56;;;18.09;56.93
23281;BME280;11809;56.390;-3.266;2023-03-31T10:43:16;98966.84;;;18.07;57.05
23281;BME280;11809;56.390;-3.266;2023-03-31T10:46:02;98978.78;;;18.03;56.62
23281;BME280;11809;56.390;-3.266;2023-03-31T10:48:38;98983.41;;;18.01;56.53
23281;BME280;11809;56.390;-3.266;2023-03-31T10:51:19;98987.88;;;18.01;56.44
23281;BME280;11809;56.390;-3.266;2023-03-31T10:53:52;98983.53;;;18.00;56.08
23281;BME280;11809;56.390;-3.266;2023-03-31T10:56:32;98997.13;;;17.97;56.14
23281;BME280;11809;56.390;-3.266;2023-03-31T11:05:23;99006.19;;;17.77;56.74
23281;BME280;11809;56.390;-3.266;2023-03-31T11:29:42;99038.47;;;17.82;57.90
23281;BME280;11809;56.390;-3.266;2023-03-31T11:40:49;99052.97;;;17.50;58.31
23281;BME280;11809;56.390;-3.266;2023-03-31T11:43:25;99056.72;;;17.58;57.39
23281;BME280;11809;56.390;-3.266;2023-03-31T11:46:28;99055.47;;;17.62;58.38
23281;BME280;11809;56.390;-3.266;2023-03-31T11:49:24;99069.44;;;17.64;58.57
23281;BME280;11809;56.390;-3.266;2023-03-31T11:51:56;99080.75;;;17.66;57.85
23281;BME280;11809;56.390;-3.266;2023-03-31T11:54:52;99069.56;;;17.62;57.93
23281;BME280;11809;56.390;-3.266;2023-03-31T11:57:28;99078.94;;;17.56;57.95
23281;BME280;11809;56.390;-3.266;2023-03-31T12:05:32;99084.97;;;17.59;57.77
23281;BME280;11809;56.390;-3.266;2023-03-31T12:08:11;99089.00;;;17.63;57.63
23281;BME280;11809;56.390;-3.266;2023-03-31T12:10:46;99096.00;;;17.64;58.06
23281;BME280;11809;56.390;-3.266;2023-03-31T12:16:10;99106.06;;;17.60;57.75
23281;BME280;11809;56.390;-3.266;2023-03-31T12:21:14;99112.06;;;17.62;57.42
23281;BME280;11809;56.390;-3.266;2023-03-31T12:23:45;99109.84;;;17.58;57.61
23281;BME280;11809;56.390;-3.266;2023-03-31T12:29:03;99110.81;;;17.56;58.19
23281;BME280;11809;56.390;-3.266;2023-03-31T12:31:34;99113.34;;;17.58;57.71
23281;BME280;11809;56.390;-3.266;2023-03-31T12:34:12;99125.22;;;17.54;58.21
23281;BME280;11809;56.390;-3.266;2023-03-31T12:36:47;99120.63;;;17.56;57.88
23281;BME280;11809;56.390;-3.266;2023-03-31T12:39:38;99127.88;;;17.44;57.18
23281;BME280;11809;56.390;-3.266;2023-03-31T12:45:20;99123.41;;;17.35;57.41
23281;BME280;11809;56.390;-3.266;2023-03-31T13:04:37;99146.34;;;17.17;57.28
23281;BME280;11809;56.390;-3.266;2023-03-31T13:07:13;99156.25;;;17.15;57.35
23281;BME280;11809;56.390;-3.266;2023-03-31T13:10:25;99156.53;;;17.12;57.19
23281;BME280;11809;56.390;-3.266;2023-03-31T13:13:00;99166.47;;;17.10;57.14
23281;BME280;11809;56.390;-3.266;2023-03-31T13:15:29;99164.78;;;17.09;57.48
23281;BME280;11809;56.390;-3.266;2023-03-31T13:18:01;99173.00;;;17.06;57.41
23281;BME280;11809;56.390;-3.266;2023-03-31T13:20:38;99177.63;;;17.04;57.59
23281;BME280;11809;56.390;-3.266;2023-03-31T13:23:16;99178.63;;;17.03;57.54
23281;BME280;11809;56.390;-3.266;2023-03-31T13:30:57;99188.78;;;16.98;57.38
23281;BME280;11809;56.390;-3.266;2023-03-31T13:33:30;99203.03;;;16.97;57.78
23281;BME280;11809;56.390;-3.266;2023-03-31T13:39:02;99204.16;;;16.94;57.59
23281;BME280;11809;56.390;-3.266;2023-03-31T13:56:11;99226.72;;;16.79;57.47
23281;BME280;11809;56.390;-3.266;2023-03-31T14:07:08;99235.78;;;16.77;58.04
23281;BME280;11809;56.390;-3.266;2023-03-31T14:09:39;99244.84;;;16.65;56.60
23281;BME280;11809;56.390;-3.266;2023-03-31T14:12:22;99244.84;;;16.65;56.76
23281;BME280;11809;56.390;-3.266;2023-03-31T14:14:56;99241.41;;;16.74;57.18
23281;BME280;11809;56.390;-3.266;2023-03-31T14:17:29;99236.78;;;16.76;57.34
23281;BME280;11809;56.390;-3.266;2023-03-31T14:23:19;99248.44;;;16.94;58.28
23281;BME280;11809;56.390;-3.266;2023-03-31T14:26:01;99248.00;;;16.89;58.84
23281;BME280;11809;56.390;-3.266;2023-03-31T14:31:28;99261.88;;;16.62;56.67
23281;BME280;11809;56.390;-3.266;2023-03-31T14:37:08;99265.41;;;16.82;58.65
23281;BME280;11809;56.390;-3.266;2023-03-31T14:39:42;99269.22;;;16.89;58.53
23281;BME280;11809;56.390;-3.266;2023-03-31T14:42:39;99269.50;;;16.95;58.33
23281;BME280;11809;56.390;-3.266;2023-03-31T14:45:29;99273.59;;;17.00;58.49
23281;BME280;11809;56.390;-3.266;2023-03-31T14:48:11;99268.41;;;16.98;58.88
23281;BME280;11809;56.390;-3.266;2023-03-31T14:50:43;99280.97;;;16.96;58.58
23281;BME280;11809;56.390;-3.266;2023-03-31T14:53:16;99269.81;;;16.92;58.16
23281;BME280;11809;56.390;-3.266;2023-03-31T14:55:44;99287.13;;;16.96;58.34
23281;BME280;11809;56.390;-3.266;2023-03-31T14:58:30;99282.66;;;16.97;58.52
23281;BME280;11809;56.390;-3.266;2023-03-31T15:01:05;99291.31;;;16.99;58.80
23281;BME280;11809;56.390;-3.266;2023-03-31T15:03:36;99287.13;;;17.06;58.59
23281;BME280;11809;56.390;-3.266;2023-03-31T15:06:08;99283.53;;;17.07;58.51
23281;BME280;11809;56.390;-3.266;2023-03-31T15:08:36;99300.31;;;17.17;58.38
23281;BME280;11809;56.390;-3.266;2023-03-31T15:11:07;99301.75;;;17.21;58.26
23281;BME280;11809;56.390;-3.266;2023-03-31T15:13:42;99295.44;;;17.22;58.02
23281;BME280;11809;56.390;-3.266;2023-03-31T15:16:28;99303.97;;;17.26;57.69
23281;BME280;11809;56.390;-3.266;2023-03-31T15:18:58;99302.00;;;17.28;57.42
23281;BME280;11809;56.390;-3.266;2023-03-31T15:21:27;99308.16;;;17.28;57.12
23281;BME280;11809;56.390;-3.266;2023-03-31T15:23:57;99318.53;;;17.31;57.36
23281;BME280;11809;56.390;-3.266;2023-03-31T15:26:31;99318.53;;;17.31;57.14
23281;BME280;11809;56.390;-3.266;2023-03-31T15:29:18;99317.69;;;17.31;56.71
23281;BME280;11809;56.390;-3.266;2023-03-31T15:31:47;99327.34;;;17.32;56.69
23281;BME280;11809;56.390;-3.266;2023-03-31T15:34:25;99334.19;;;17.34;56.67
23281;BME280;11809;56.390;-3.266;2023-03-31T15:36:55;99334.88;;;17.36;56.70
23281;BME280;11809;56.390;-3.266;2023-03-31T15:39:26;99346.09;;;17.40;56.68
23281;BME280;11809;56.390;-3.266;2023-03-31T15:41:55;99353.22;;;17.39;56.62
23281;BME280;11809;56.390;-3.266;2023-03-31T15:44:45;99361.19;;;17.39;56.23
23281;BME280;11809;56.390;-3.266;2023-03-31T15:47:18;99361.03;;;17.41;56.04
23281;BME280;11809;56.390;-3.266;2023-03-31T15:49:53;99360.34;;;17.39;56.28
23281;BME280;11809;56.390;-3.266;2023-03-31T15:52:30;99374.44;;;17.39;56.37
23281;BME280;11809;56.390;-3.266;2023-03-31T15:55:01;99372.75;;;17.38;56.29
23281;BME280;11809;56.390;-3.266;2023-03-31T15:57:48;99372.75;;;17.38;56.59
23281;BME280;11809;56.390;-3.266;2023-03-31T16:00:49;99376.94;;;17.31;56.35
23281;BME280;11809;56.390;-3.266;2023-03-31T16:03:32;99379.59;;;17.31;56.59
23281;BME280;11809;56.390;-3.266;2023-03-31T16:08:58;99395.97;;;17.36;56.74
23281;BME280;11809;56.390;-3.266;2023-03-31T16:11:35;99390.66;;;17.36;56.57
23281;BME280;11809;56.390;-3.266;2023-03-31T16:14:12;99394.28;;;17.35;56.55
23281;BME280;11809;56.390;-3.266;2023-03-31T16:16:58;99402.97;;;17.37;56.25
23281;BME280;11809;56.390;-3.266;2023-03-31T16:19:30;99405.63;;;17.37;56.42